Alleghany, Virginia
Current Conditions -  °F | °C
As of 5:55 PM on Thursday 23 Oct 2014 (Local Time) from KHSP Reporting Station
Overcast Overcast  
Wind Chill: 33°   Ceiling: 800
Heat Index: 42°   Visibility: 10mi
Dew Point: 39°   Wind: 21mph
Humidity: 88%   Direction: 310°NW
Pressure: 30.01"   Gusts: 26mph
Location:  37.7731°N, 80.0632°W
Report Text: KHSP 232155Z AUTO 31018G23KT 10SM OVC008 06/04 A3001 RMK AO2 T00550037
Loading
Personal Weather Stations






























Interactive Weather Map New forecast layout! Learn more

10-Day Weather Forecast

Advertisements
Track Severe Weather on mobile